createdAt,value
2019-05-22T05:11:48.321Z,151.90
2019-05-22T05:21:48.277Z,124.69
2019-05-22T05:31:48.261Z,133.97
2019-05-22T05:41:47.802Z,92.59
2019-05-22T05:51:49.920Z,115.73
2019-05-22T06:01:46.710Z,134.47
2019-05-22T06:11:50.164Z,113.21
2019-05-22T06:21:48.391Z,103.20
2019-05-22T06:31:48.456Z,92.14
2019-05-22T06:41:48.635Z,116.91
2019-05-22T06:51:46.526Z,170.23
2019-05-22T07:01:49.944Z,117.98
2019-05-22T07:11:48.230Z,59.74
2019-05-22T07:21:48.286Z,31.95
2019-05-22T07:31:48.676Z,12.05
2019-05-22T07:41:50.184Z,15.48
2019-05-22T07:51:57.071Z,5.85
2019-05-22T08:01:48.122Z,37.02
2019-05-22T08:11:48.878Z,42.90
2019-05-22T08:22:05.794Z,51.62
2019-05-22T08:31:48.362Z,83.07
2019-05-22T08:41:48.235Z,131.23
2019-05-22T08:51:48.306Z,110.72
2019-05-22T09:01:48.076Z,103.12
2019-05-22T09:11:51.107Z,112.32
2019-05-22T09:21:48.344Z,125.85
2019-05-22T09:31:50.620Z,122.02
2019-05-22T09:41:49.204Z,104.92
2019-05-22T09:51:50.041Z,177.60
2019-05-22T10:01:47.963Z,207.08
2019-05-22T10:11:51.669Z,200.57
2019-05-22T10:21:48.415Z,213.01
2019-05-22T10:31:48.281Z,190.88
2019-05-22T10:41:50.079Z,207.85
2019-05-22T10:51:47.429Z,173.57
2019-05-22T11:01:47.466Z,201.72
2019-05-22T11:11:49.498Z,188.48
2019-05-22T11:21:51.605Z,252.72
2019-05-22T11:31:51.668Z,351.45
2019-05-22T11:41:47.770Z,392.86
2019-05-22T11:51:47.901Z,440.55
2019-05-22T12:01:48.096Z,431.89
2019-05-22T12:11:47.431Z,449.01
2019-05-22T12:21:47.706Z,436.74
2019-05-22T12:31:47.459Z,447.96
2019-05-22T12:41:47.571Z,501.66
2019-05-22T13:15:08.891Z,571.28
2019-05-22T13:24:59.528Z,651.42
2019-05-22T13:35:00.512Z,647.48
2019-05-22T13:44:59.166Z,683.02
2019-05-22T13:55:03.837Z,661.03
2019-05-22T14:04:56.825Z,674.04
2019-05-22T14:14:57.201Z,757.06
2019-05-22T14:24:56.973Z,755.74
2019-05-22T14:34:57.310Z,710.12
2019-05-22T14:44:57.315Z,801.37
2019-05-22T14:54:58.916Z,872.38
2019-05-22T15:04:59.196Z,944.13
2019-05-22T15:15:00.384Z,838.90
2019-05-22T15:24:59.348Z,798.93
2019-05-22T15:34:57.445Z,982.81
2019-05-22T15:44:57.333Z,979.55
2019-05-22T15:54:57.226Z,1111.82
2019-05-22T16:04:59.014Z,1113.47
2019-05-22T16:14:59.129Z,1099.99
2019-05-22T16:24:59.708Z,1153.13
2019-05-22T16:34:57.315Z,1057.18
2019-05-22T16:44:57.255Z,1031.23
2019-05-22T16:54:59.173Z,1140.45
2019-05-22T17:04:57.405Z,1134.70
2019-05-22T17:14:57.250Z,1091.33
2019-05-22T17:24:57.331Z,1019.03
2019-05-22T17:34:59.050Z,970.46
2019-05-22T17:44:58.705Z,914.08
2019-05-22T17:54:57.437Z,933.04
2019-05-22T18:04:58.641Z,963.55
2019-05-22T18:15:00.644Z,912.02
2019-05-22T18:24:56.411Z,914.38
2019-05-22T18:34:56.279Z,866.46
2019-05-22T18:44:58.081Z,807.99
2019-05-22T18:55:02.241Z,818.10
2019-05-22T19:05:00.480Z,639.34
